sensor_id;sensor_type;location;lat;lon;timestamp;temperature;humidity
36372;DHT22;22398;51.346;12.372;2023-05-15T00:01:26;11.40;97.50
36372;DHT22;22398;51.346;12.372;2023-05-15T00:06:30;11.50;98.30
36372;DHT22;22398;51.346;12.372;2023-05-15T00:11:33;11.50;98.80
36372;DHT22;22398;51.346;12.372;2023-05-15T00:16:38;11.50;99.00
36372;DHT22;22398;51.346;12.372;2023-05-15T00:21:42;11.40;99.30
36372;DHT22;22398;51.346;12.372;2023-05-15T00:26:46;11.30;99.40
36372;DHT22;22398;51.346;12.372;2023-05-15T00:31:50;11.20;99.90
36372;DHT22;22398;51.346;12.372;2023-05-15T00:36:54;11.20;99.90
36372;DHT22;22398;51.346;12.372;2023-05-15T00:41:59;11.00;99.90
36372;DHT22;22398;51.346;12.372;2023-05-15T00:47:05;10.90;99.90
36372;DHT22;22398;51.346;12.372;2023-05-15T00:52:09;10.90;99.90
36372;DHT22;22398;51.346;12.372;2023-05-15T00:57:13;10.90;99.90
36372;DHT22;22398;51.346;12.372;2023-05-15T01:02:19;11.00;99.90
36372;DHT22;22398;51.346;12.372;2023-05-15T01:07:22;11.10;99.90
36372;DHT22;22398;51.346;12.372;2023-05-15T01:12:26;11.30;99.90
36372;DHT22;22398;51.346;12.372;2023-05-15T01:17:33;11.40;99.90
36372;DHT22;22398;51.346;12.372;2023-05-15T01:23:03;11.40;99.90
36372;DHT22;22398;51.346;12.372;2023-05-15T01:28:11;11.40;99.90
36372;DHT22;22398;51.346;12.372;2023-05-15T01:33:21;11.30;99.90
36372;DHT22;22398;51.346;12.372;2023-05-15T01:38:29;11.30;99.90
36372;DHT22;22398;51.346;12.372;2023-05-15T01:43:39;11.20;99.90
36372;DHT22;22398;51.346;12.372;2023-05-15T01:48:45;11.20;99.90
36372;DHT22;22398;51.346;12.372;2023-05-15T01:53:49;11.20;99.90
36372;DHT22;22398;51.346;12.372;2023-05-15T01:58:56;11.20;99.90
36372;DHT22;22398;51.346;12.372;2023-05-15T02:04:03;11.10;99.90
36372;DHT22;22398;51.346;12.372;2023-05-15T02:09:06;11.10;99.90
36372;DHT22;22398;51.346;12.372;2023-05-15T02:14:14;11.10;99.90
36372;DHT22;22398;51.346;12.372;2023-05-15T02:19:18;11.00;99.90
36372;DHT22;22398;51.346;12.372;2023-05-15T02:24:22;11.00;99.90
36372;DHT22;22398;51.346;12.372;2023-05-15T02:29:33;11.00;99.90
36372;DHT22;22398;51.346;12.372;2023-05-15T02:34:43;11.00;99.90
36372;DHT22;22398;51.346;12.372;2023-05-15T02:39:50;11.00;99.90
36372;DHT22;22398;51.346;12.372;2023-05-15T02:44:57;11.00;99.90
36372;DHT22;22398;51.346;12.372;2023-05-15T02:50:01;11.00;99.90
36372;DHT22;22398;51.346;12.372;2023-05-15T02:55:08;11.00;99.90
36372;DHT22;22398;51.346;12.372;2023-05-15T03:00:14;11.00;99.90
36372;DHT22;22398;51.346;12.372;2023-05-15T03:05:18;11.20;99.90
36372;DHT22;22398;51.346;12.372;2023-05-15T03:10:22;11.20;99.90
36372;DHT22;22398;51.346;12.372;2023-05-15T03:15:26;11.30;99.90
36372;DHT22;22398;51.346;12.372;2023-05-15T03:20:30;11.40;99.90
36372;DHT22;22398;51.346;12.372;2023-05-15T03:25:33;11.40;99.90
36372;DHT22;22398;51.346;12.372;2023-05-15T03:30:38;11.40;99.90
36372;DHT22;22398;51.346;12.372;2023-05-15T03:35:41;11.40;99.90
36372;DHT22;22398;51.346;12.372;2023-05-15T03:40:45;11.50;99.90
36372;DHT22;22398;51.346;12.372;2023-05-15T03:45:53;11.60;99.90
36372;DHT22;22398;51.346;12.372;2023-05-15T03:50:57;11.60;99.90
36372;DHT22;22398;51.346;12.372;2023-05-15T03:56:05;11.70;99.90
36372;DHT22;22398;51.346;12.372;2023-05-15T04:01:10;11.70;99.90
36372;DHT22;22398;51.346;12.372;2023-05-15T04:06:13;11.80;99.90
36372;DHT22;22398;51.346;12.372;2023-05-15T04:11:17;11.90;99.90
36372;DHT22;22398;51.346;12.372;2023-05-15T04:16:21;12.00;99.90
36372;DHT22;22398;51.346;12.372;2023-05-15T04:21:24;12.10;99.90
36372;DHT22;22398;51.346;12.372;2023-05-15T04:26:28;12.20;99.90
36372;DHT22;22398;51.346;12.372;2023-05-15T04:31:36;12.30;99.90
36372;DHT22;22398;51.346;12.372;2023-05-15T04:36:40;12.40;99.90
36372;DHT22;22398;51.346;12.372;2023-05-15T04:41:44;12.60;99.90
36372;DHT22;22398;51.346;12.372;2023-05-15T04:46:48;12.60;99.90
36372;DHT22;22398;51.346;12.372;2023-05-15T04:51:52;12.80;99.90
36372;DHT22;22398;51.346;12.372;2023-05-15T04:56:55;12.90;99.90
36372;DHT22;22398;51.346;12.372;2023-05-15T05:02:00;13.10;99.90
36372;DHT22;22398;51.346;12.372;2023-05-15T05:07:04;13.30;99.90
36372;DHT22;22398;51.346;12.372;2023-05-15T05:12:08;13.50;99.90
36372;DHT22;22398;51.346;12.372;2023-05-15T05:17:14;13.70;99.90
36372;DHT22;22398;51.346;12.372;2023-05-15T05:22:17;13.90;99.90
36372;DHT22;22398;51.346;12.372;2023-05-15T05:27:21;14.10;99.90
36372;DHT22;22398;51.346;12.372;2023-05-15T05:32:26;14.30;99.90
36372;DHT22;22398;51.346;12.372;2023-05-15T05:37:29;14.40;99.90
36372;DHT22;22398;51.346;12.372;2023-05-15T05:42:32;14.60;99.90
36372;DHT22;22398;51.346;12.372;2023-05-15T05:47:37;14.90;99.50
36372;DHT22;22398;51.346;12.372;2023-05-15T05:52:40;15.00;98.70
36372;DHT22;22398;51.346;12.372;2023-05-15T05:57:43;15.00;98.00
36372;DHT22;22398;51.346;12.372;2023-05-15T06:02:48;15.10;97.50
36372;DHT22;22398;51.346;12.372;2023-05-15T06:07:54;15.40;96.70
36372;DHT22;22398;51.346;12.372;2023-05-15T06:12:57;15.50;95.90
36372;DHT22;22398;51.346;12.372;2023-05-15T06:18:04;15.50;95.20
36372;DHT22;22398;51.346;12.372;2023-05-15T06:23:07;15.70;94.60
36372;DHT22;22398;51.346;12.372;2023-05-15T06:28:11;15.50;93.90
36372;DHT22;22398;51.346;12.372;2023-05-15T06:33:16;15.40;93.60
36372;DHT22;22398;51.346;12.372;2023-05-15T06:38:19;15.30;93.30
36372;DHT22;22398;51.346;12.372;2023-05-15T06:43:22;15.20;93.20
36372;DHT22;22398;51.346;12.372;2023-05-15T06:48:27;15.00;93.10
36372;DHT22;22398;51.346;12.372;2023-05-15T06:53:30;14.90;93.20
36372;DHT22;22398;51.346;12.372;2023-05-15T06:58:34;14.90;93.20
36372;DHT22;22398;51.346;12.372;2023-05-15T07:03:39;14.90;93.20
36372;DHT22;22398;51.346;12.372;2023-05-15T07:08:44;14.90;93.50
36372;DHT22;22398;51.346;12.372;2023-05-15T07:13:47;14.90;93.60
36372;DHT22;22398;51.346;12.372;2023-05-15T07:18:53;15.10;93.60
36372;DHT22;22398;51.346;12.372;2023-05-15T07:23:57;15.20;93.40
36372;DHT22;22398;51.346;12.372;2023-05-15T07:29:00;15.40;93.40
36372;DHT22;22398;51.346;12.372;2023-05-15T07:34:06;15.60;93.20
36372;DHT22;22398;51.346;12.372;2023-05-15T07:39:09;15.70;92.90
36372;DHT22;22398;51.346;12.372;2023-05-15T07:44:13;16.00;92.80
36372;DHT22;22398;51.346;12.372;2023-05-15T07:49:17;16.30;92.50
36372;DHT22;22398;51.346;12.372;2023-05-15T07:54:21;16.60;91.90
36372;DHT22;22398;51.346;12.372;2023-05-15T07:59:24;16.80;91.10
36372;DHT22;22398;51.346;12.372;2023-05-15T08:04:30;17.20;90.70
36372;DHT22;22398;51.346;12.372;2023-05-15T08:09:33;17.50;89.80
36372;DHT22;22398;51.346;12.372;2023-05-15T08:14:36;17.80;88.10
36372;DHT22;22398;51.346;12.372;2023-05-15T08:19:41;18.00;86.40
36372;DHT22;22398;51.346;12.372;2023-05-15T08:24:44;18.20;84.20
36372;DHT22;22398;51.346;12.372;2023-05-15T08:29:47;18.60;83.20
36372;DHT22;22398;51.346;12.372;2023-05-15T08:34:52;18.90;81.40
36372;DHT22;22398;51.346;12.372;2023-05-15T08:39:55;19.10;78.80
36372;DHT22;22398;51.346;12.372;2023-05-15T08:44:59;19.10;76.40
36372;DHT22;22398;51.346;12.372;2023-05-15T08:50:06;19.60;75.30
36372;DHT22;22398;51.346;12.372;2023-05-15T08:55:12;19.60;72.50
36372;DHT22;22398;51.346;12.372;2023-05-15T09:00:17;19.60;71.30
36372;DHT22;22398;51.346;12.372;2023-05-15T09:05:23;19.70;69.20
36372;DHT22;22398;51.346;12.372;2023-05-15T09:10:27;19.80;67.40
36372;DHT22;22398;51.346;12.372;2023-05-15T09:15:31;19.90;66.50
36372;DHT22;22398;51.346;12.372;2023-05-15T09:20:37;19.80;64.80
36372;DHT22;22398;51.346;12.372;2023-05-15T09:25:42;20.10;64.40
36372;DHT22;22398;51.346;12.372;2023-05-15T09:30:45;20.00;64.40
36372;DHT22;22398;51.346;12.372;2023-05-15T09:35:50;20.10;64.00
36372;DHT22;22398;51.346;12.372;2023-05-15T09:41:01;20.40;63.80
36372;DHT22;22398;51.346;12.372;2023-05-15T09:46:05;20.90;62.90
36372;DHT22;22398;51.346;12.372;2023-05-15T09:51:16;20.90;61.80
36372;DHT22;22398;51.346;12.372;2023-05-15T09:56:19;20.40;60.20
36372;DHT22;22398;51.346;12.372;2023-05-15T10:01:24;20.70;60.20
36372;DHT22;22398;51.346;12.372;2023-05-15T10:06:35;20.50;60.40
36372;DHT22;22398;51.346;12.372;2023-05-15T10:11:41;20.50;60.40
36372;DHT22;22398;51.346;12.372;2023-05-15T10:16:45;20.50;60.60
36372;DHT22;22398;51.346;12.372;2023-05-15T10:21:53;20.40;60.10
36372;DHT22;22398;51.346;12.372;2023-05-15T10:26:58;20.40;60.10
36372;DHT22;22398;51.346;12.372;2023-05-15T10:32:03;20.60;59.30
36372;DHT22;22398;51.346;12.372;2023-05-15T10:37:08;21.00;58.60
36372;DHT22;22398;51.346;12.372;2023-05-15T10:42:14;20.90;57.90
36372;DHT22;22398;51.346;12.372;2023-05-15T10:47:18;21.00;56.80
36372;DHT22;22398;51.346;12.372;2023-05-15T10:52:23;21.20;56.20
36372;DHT22;22398;51.346;12.372;2023-05-15T10:57:27;21.50;56.10
36372;DHT22;22398;51.346;12.372;2023-05-15T11:02:37;21.30;54.60
36372;DHT22;22398;51.346;12.372;2023-05-15T11:07:42;21.50;54.20
36372;DHT22;22398;51.346;12.372;2023-05-15T11:12:56;21.60;54.40
36372;DHT22;22398;51.346;12.372;2023-05-15T11:18:04;21.50;53.20
36372;DHT22;22398;51.346;12.372;2023-05-15T11:23:10;21.80;53.10
36372;DHT22;22398;51.346;12.372;2023-05-15T11:28:20;22.10;53.20
36372;DHT22;22398;51.346;12.372;2023-05-15T11:33:28;22.10;52.90
36372;DHT22;22398;51.346;12.372;2023-05-15T11:38:38;22.60;53.00
36372;DHT22;22398;51.346;12.372;2023-05-15T11:43:42;22.30;52.60
36372;DHT22;22398;51.346;12.372;2023-05-15T11:48:46;22.60;52.80
36372;DHT22;22398;51.346;12.372;2023-05-15T11:53:55;22.50;52.40
36372;DHT22;22398;51.346;12.372;2023-05-15T11:58:59;22.00;52.80
36372;DHT22;22398;51.346;12.372;2023-05-15T12:04:11;21.40;53.50
36372;DHT22;22398;51.346;12.372;2023-05-15T12:09:17;20.80;54.40
36372;DHT22;22398;51.346;12.372;2023-05-15T12:14:27;20.50;55.20
36372;DHT22;22398;51.346;12.372;2023-05-15T12:19:31;20.40;55.70
36372;DHT22;22398;51.346;12.372;2023-05-15T12:24:41;20.50;56.60
36372;DHT22;22398;51.346;12.372;2023-05-15T12:29:45;20.70;56.50
36372;DHT22;22398;51.346;12.372;2023-05-15T12:34:49;21.10;55.70
36372;DHT22;22398;51.346;12.372;2023-05-15T12:39:55;21.50;55.00
36372;DHT22;22398;51.346;12.372;2023-05-15T12:44:59;21.80;54.10
36372;DHT22;22398;51.346;12.372;2023-05-15T12:50:11;22.30;53.20
36372;DHT22;22398;51.346;12.372;2023-05-15T12:55:20;22.50;52.10
36372;DHT22;22398;51.346;12.372;2023-05-15T13:00:24;22.40;50.90
36372;DHT22;22398;51.346;12.372;2023-05-15T13:05:31;22.00;50.30
36372;DHT22;22398;51.346;12.372;2023-05-15T13:10:37;21.80;50.20
36372;DHT22;22398;51.346;12.372;2023-05-15T13:15:42;21.70;50.40
36372;DHT22;22398;51.346;12.372;2023-05-15T13:20:47;21.80;50.20
36372;DHT22;22398;51.346;12.372;2023-05-15T13:25:52;21.80;50.10
36372;DHT22;22398;51.346;12.372;2023-05-15T13:30:56;21.60;50.30
36372;DHT22;22398;51.346;12.372;2023-05-15T13:36:00;21.70;50.80
36372;DHT22;22398;51.346;12.372;2023-05-15T13:41:05;21.10;52.30
36372;DHT22;22398;51.346;12.372;2023-05-15T13:46:08;20.20;54.70
36372;DHT22;22398;51.346;12.372;2023-05-15T13:51:12;19.20;64.30
36372;DHT22;22398;51.346;12.372;2023-05-15T13:56:17;18.50;66.30
36372;DHT22;22398;51.346;12.372;2023-05-15T14:01:21;17.70;66.80
36372;DHT22;22398;51.346;12.372;2023-05-15T14:06:24;16.80;68.90
36372;DHT22;22398;51.346;12.372;2023-05-15T14:11:30;15.70;90.30
36372;DHT22;22398;51.346;12.372;2023-05-15T14:16:35;15.30;99.90
36372;DHT22;22398;51.346;12.372;2023-05-15T14:21:39;15.50;99.90
36372;DHT22;22398;51.346;12.372;2023-05-15T14:26:44;16.00;99.90
36372;DHT22;22398;51.346;12.372;2023-05-15T14:31:48;16.60;99.90
36372;DHT22;22398;51.346;12.372;2023-05-15T14:36:51;17.20;99.90
36372;DHT22;22398;51.346;12.372;2023-05-15T14:41:56;17.70;99.90
36372;DHT22;22398;51.346;12.372;2023-05-15T14:47:07;18.20;99.90
36372;DHT22;22398;51.346;12.372;2023-05-15T14:52:11;18.50;99.90
36372;DHT22;22398;51.346;12.372;2023-05-15T14:57:16;18.60;99.90
36372;DHT22;22398;51.346;12.372;2023-05-15T15:02:21;18.70;99.40
36372;DHT22;22398;51.346;12.372;2023-05-15T15:07:27;18.80;92.90
36372;DHT22;22398;51.346;12.372;2023-05-15T15:12:33;18.90;85.30
36372;DHT22;22398;51.346;12.372;2023-05-15T15:17:36;19.20;79.50
36372;DHT22;22398;51.346;12.372;2023-05-15T15:22:40;19.60;76.30
36372;DHT22;22398;51.346;12.372;2023-05-15T15:27:45;19.50;73.60
36372;DHT22;22398;51.346;12.372;2023-05-15T15:32:49;19.30;73.00
36372;DHT22;22398;51.346;12.372;2023-05-15T15:37:53;19.40;72.00
36372;DHT22;22398;51.346;12.372;2023-05-15T15:42:58;19.50;70.30
36372;DHT22;22398;51.346;12.372;2023-05-15T15:48:03;19.80;69.70
36372;DHT22;22398;51.346;12.372;2023-05-15T15:53:07;20.40;68.20
36372;DHT22;22398;51.346;12.372;2023-05-15T15:58:11;20.60;65.80
36372;DHT22;22398;51.346;12.372;2023-05-15T16:03:15;20.30;64.10
36372;DHT22;22398;51.346;12.372;2023-05-15T16:08:19;20.10;62.90
36372;DHT22;22398;51.346;12.372;2023-05-15T16:13:24;19.90;62.60
36372;DHT22;22398;51.346;12.372;2023-05-15T16:18:28;19.80;62.30
36372;DHT22;22398;51.346;12.372;2023-05-15T16:23:32;19.70;62.40
36372;DHT22;22398;51.346;12.372;2023-05-15T16:28:37;19.80;62.20
36372;DHT22;22398;51.346;12.372;2023-05-15T16:33:41;19.70;61.70
36372;DHT22;22398;51.346;12.372;2023-05-15T16:38:44;19.70;61.90
36372;DHT22;22398;51.346;12.372;2023-05-15T16:43:49;20.50;61.70
36372;DHT22;22398;51.346;12.372;2023-05-15T16:48:52;21.10;60.50
36372;DHT22;22398;51.346;12.372;2023-05-15T16:53:56;21.50;59.60
36372;DHT22;22398;51.346;12.372;2023-05-15T16:59:02;21.50;58.80
36372;DHT22;22398;51.346;12.372;2023-05-15T17:04:06;21.00;58.90
36372;DHT22;22398;51.346;12.372;2023-05-15T17:09:09;21.00;59.30
36372;DHT22;22398;51.346;12.372;2023-05-15T17:14:14;21.10;59.20
36372;DHT22;22398;51.346;12.372;2023-05-15T17:19:18;20.70;59.10
36372;DHT22;22398;51.346;12.372;2023-05-15T17:24:22;20.50;59.60
36372;DHT22;22398;51.346;12.372;2023-05-15T17:29:27;20.40;59.90
36372;DHT22;22398;51.346;12.372;2023-05-15T17:34:30;20.30;60.10
36372;DHT22;22398;51.346;12.372;2023-05-15T17:39:34;20.20;60.60
36372;DHT22;22398;51.346;12.372;2023-05-15T17:44:39;20.90;60.50
36372;DHT22;22398;51.346;12.372;2023-05-15T17:49:43;21.70;60.00
36372;DHT22;22398;51.346;12.372;2023-05-15T17:54:46;21.80;59.00
36372;DHT22;22398;51.346;12.372;2023-05-15T17:59:51;21.20;58.90
36372;DHT22;22398;51.346;12.372;2023-05-15T18:04:55;20.70;59.60
36372;DHT22;22398;51.346;12.372;2023-05-15T18:09:58;20.70;59.90
36372;DHT22;22398;51.346;12.372;2023-05-15T18:15:04;20.30;59.80
36372;DHT22;22398;51.346;12.372;2023-05-15T18:20:08;19.90;60.20
36372;DHT22;22398;51.346;12.372;2023-05-15T18:25:12;19.60;60.70
36372;DHT22;22398;51.346;12.372;2023-05-15T18:30:17;19.30;61.10
36372;DHT22;22398;51.346;12.372;2023-05-15T18:35:21;19.10;61.60
36372;DHT22;22398;51.346;12.372;2023-05-15T18:40:25;18.90;62.00
36372;DHT22;22398;51.346;12.372;2023-05-15T18:45:31;18.80;62.50
36372;DHT22;22398;51.346;12.372;2023-05-15T18:50:34;18.70;62.80
36372;DHT22;22398;51.346;12.372;2023-05-15T18:55:38;18.50;63.00
36372;DHT22;22398;51.346;12.372;2023-05-15T19:00:43;18.40;63.40
36372;DHT22;22398;51.346;12.372;2023-05-15T19:05:47;18.30;63.70
36372;DHT22;22398;51.346;12.372;2023-05-15T19:10:51;18.10;64.10
36372;DHT22;22398;51.346;12.372;2023-05-15T19:15:56;17.90;64.60
36372;DHT22;22398;51.346;12.372;2023-05-15T19:20:59;17.80;64.90
36372;DHT22;22398;51.346;12.372;2023-05-15T19:26:03;17.60;65.30
36372;DHT22;22398;51.346;12.372;2023-05-15T19:31:08;17.40;65.80
36372;DHT22;22398;51.346;12.372;2023-05-15T19:36:31;17.20;66.20
36372;DHT22;22398;51.346;12.372;2023-05-15T19:41:35;17.00;66.80
36372;DHT22;22398;51.346;12.372;2023-05-15T19:46:40;16.70;67.90
36372;DHT22;22398;51.346;12.372;2023-05-15T19:51:44;16.50;67.90
36372;DHT22;22398;51.346;12.372;2023-05-15T19:56:47;16.40;68.40
36372;DHT22;22398;51.346;12.372;2023-05-15T20:01:52;16.30;68.90
36372;DHT22;22398;51.346;12.372;2023-05-15T20:06:55;16.20;69.40
36372;DHT22;22398;51.346;12.372;2023-05-15T20:11:59;16.10;69.80
36372;DHT22;22398;51.346;12.372;2023-05-15T20:17:05;16.10;70.30
36372;DHT22;22398;51.346;12.372;2023-05-15T20:22:09;16.00;70.80
36372;DHT22;22398;51.346;12.372;2023-05-15T20:27:12;16.00;71.50
36372;DHT22;22398;51.346;12.372;2023-05-15T20:32:17;16.00;72.30
36372;DHT22;22398;51.346;12.372;2023-05-15T20:37:21;15.90;73.10
36372;DHT22;22398;51.346;12.372;2023-05-15T20:42:28;15.90;74.00
36372;DHT22;22398;51.346;12.372;2023-05-15T20:47:35;15.80;74.60
36372;DHT22;22398;51.346;12.372;2023-05-15T20:52:38;15.60;75.10
36372;DHT22;22398;51.346;12.372;2023-05-15T20:57:42;15.50;75.70
36372;DHT22;22398;51.346;12.372;2023-05-15T21:02:47;15.30;76.40
36372;DHT22;22398;51.346;12.372;2023-05-15T21:07:51;15.10;76.90
36372;DHT22;22398;51.346;12.372;2023-05-15T21:12:55;15.00;77.70
36372;DHT22;22398;51.346;12.372;2023-05-15T21:18:02;14.90;78.50
36372;DHT22;22398;51.346;12.372;2023-05-15T21:23:06;14.80;79.20
36372;DHT22;22398;51.346;12.372;2023-05-15T21:28:09;14.60;80.00
36372;DHT22;22398;51.346;12.372;2023-05-15T21:33:14;14.50;81.00
36372;DHT22;22398;51.346;12.372;2023-05-15T21:38:18;14.50;82.20
36372;DHT22;22398;51.346;12.372;2023-05-15T21:43:22;14.40;82.90
36372;DHT22;22398;51.346;12.372;2023-05-15T21:48:26;14.30;83.90
36372;DHT22;22398;51.346;12.372;2023-05-15T21:53:30;14.20;84.70
36372;DHT22;22398;51.346;12.372;2023-05-15T21:58:33;14.10;85.50
36372;DHT22;22398;51.346;12.372;2023-05-15T22:03:37;14.00;86.30
36372;DHT22;22398;51.346;12.372;2023-05-15T22:08:41;13.90;87.20
36372;DHT22;22398;51.346;12.372;2023-05-15T22:13:44;13.80;88.10
36372;DHT22;22398;51.346;12.372;2023-05-15T22:18:49;13.80;89.10
36372;DHT22;22398;51.346;12.372;2023-05-15T22:23:54;13.70;89.60
36372;DHT22;22398;51.346;12.372;2023-05-15T22:28:58;13.60;90.10
36372;DHT22;22398;51.346;12.372;2023-05-15T22:34:02;13.50;90.40
36372;DHT22;22398;51.346;12.372;2023-05-15T22:39:06;13.40;90.70
36372;DHT22;22398;51.346;12.372;2023-05-15T22:44:09;13.40;91.10
36372;DHT22;22398;51.346;12.372;2023-05-15T22:49:14;13.30;91.30
36372;DHT22;22398;51.346;12.372;2023-05-15T22:54:20;13.20;91.60
36372;DHT22;22398;51.346;12.372;2023-05-15T22:59:24;13.10;91.80
36372;DHT22;22398;51.346;12.372;2023-05-15T23:04:29;13.00;92.30
36372;DHT22;22398;51.346;12.372;2023-05-15T23:09:33;12.90;92.60
36372;DHT22;22398;51.346;12.372;2023-05-15T23:14:36;12.90;92.90
36372;DHT22;22398;51.346;12.372;2023-05-15T23:19:41;12.80;93.20
36372;DHT22;22398;51.346;12.372;2023-05-15T23:24:44;12.80;93.50
36372;DHT22;22398;51.346;12.372;2023-05-15T23:29:48;12.80;93.80
36372;DHT22;22398;51.346;12.372;2023-05-15T23:34:53;12.70;94.00
36372;DHT22;22398;51.346;12.372;2023-05-15T23:39:58;12.60;94.30
36372;DHT22;22398;51.346;12.372;2023-05-15T23:45:01;12.60;94.50
36372;DHT22;22398;51.346;12.372;2023-05-15T23:50:07;12.50;94.80
36372;DHT22;22398;51.346;12.372;2023-05-15T23:55:11;12.50;95.00
